Anatife — FGE8389 — position and weather

sailwx.info

Track history (hours):
 
Tides and Currents Weather Stations Pressure Air Temp Water Temp Dewpoint Dewpoint Depression Visibility Wind Speed Wind Dir Waves Ship Positions

Anatife

Last reported at 2015-Jun-21 08:19 UTC. Time now 2015-Jul-05 17:32 UTC.
Position N 47°18' W 002°05'.
Warning: this ship's position is 14 days out of date.

Length 41 m; draft 2 m.

Type: Tanker. MMSI: 227681520.

Date/timePositionNaut miles runAvg speedWind from/ knotsBaromVisibWave heightAir tempDewpointWater temp
2015-Jun-21 08:19N 47°18' W 002°05'0 0.0
2015-Jun-21 07:26N 47°18' W 002°05'0 0.0
2015-Jun-21 06:32N 47°18' W 002°05'0 0.0
2015-Jun-21 05:33N 47°18' W 002°05'0 0.0
2015-Jun-21 04:33N 47°18' W 002°05'0 0.0
2015-Jun-21 03:33N 47°18' W 002°05'0 0.0
2015-Jun-21 02:33N 47°18' W 002°05'0 0.0
2015-Jun-21 01:32N 47°18' W 002°05'0 0.0
2015-Jun-21 00:32N 47°18' W 002°05'0 0.0
2015-Jun-20 23:33N 47°18' W 002°05'0 0.0
2015-Jun-20 22:30N 47°18' W 002°05'0 0.0
2015-Jun-20 21:28N 47°18' W 002°05'0 0.0
2015-Jun-20 20:33N 47°18' W 002°05'0 0.0
2015-Jun-20 10:27N 47°18' W 002°05'0 0.0
2015-Jun-20 09:33N 47°18' W 002°05'0 0.0
2015-Jun-20 08:33N 47°18' W 002°05'0 0.0
2015-Jun-20 07:33N 47°18' W 002°05'0 0.0
2015-Jun-20 06:33N 47°18' W 002°05'0 0.0
2015-Jun-20 05:33N 47°18' W 002°05'0 0.0
2015-Jun-20 04:33N 47°18' W 002°05'0 0.0
2015-Jun-20 03:33N 47°18' W 002°05'0 0.0
2015-Jun-20 02:33N 47°18' W 002°05'0 0.0
2015-Jun-20 01:33N 47°18' W 002°05'0 0.0
2015-Jun-20 00:33N 47°18' W 002°05'0 0.0
2015-Jun-19 23:33N 47°18' W 002°05'0 0.0
2015-Jun-19 22:33N 47°18' W 002°05'0 0.0
2015-Jun-19 21:33N 47°18' W 002°05'0 0.0
2015-Jun-19 20:33N 47°18' W 002°05'0 0.0
2015-Jun-19 19:33N 47°18' W 002°05'0 0.0
2015-Jun-19 18:33N 47°18' W 002°05'0 0.0
2015-Jun-19 13:26N 47°18' W 002°05'10 8.9
2015-Jun-19 12:20N 47°13' W 002°17'1010.2
2015-Jun-19 11:23N 47°05' W 002°25'11 9.9
2015-Jun-19 10:17N 46°54' W 002°28'810.2
2015-Jun-19 09:29N 46°47' W 002°23'3 3.2
2015-Jun-19 08:26N 46°44' W 002°21'0 0.0
2015-Jun-19 07:22N 46°44' W 002°21'0 0.0
2015-Jun-19 06:27N 46°44' W 002°21'0 0.0
2015-Jun-19 05:33N 46°44' W 002°21'0 0.0
2015-Jun-19 04:27N 46°44' W 002°21'0 0.0
2015-Jun-19 03:19N 46°44' W 002°21'0 0.0
2015-Jun-19 02:13N 46°44' W 002°21'0 0.0
2015-Jun-18 22:31N 46°44' W 002°21'0 0.0
2015-Jun-18 21:32N 46°44' W 002°21'36 2.8
2015-Jun-18 08:30N 47°18' W 002°05'0 0.0
2015-Jun-18 07:32N 47°18' W 002°05'0 0.0
2015-Jun-18 06:33N 47°18' W 002°05'0 0.0
2015-Jun-18 05:33N 47°18' W 002°05'0 0.0
2015-Jun-18 04:33N 47°18' W 002°05'0 0.0
2015-Jun-18 03:33N 47°18' W 002°05'0 0.0
2015-Jun-18 02:33N 47°18' W 002°05'0 0.0
2015-Jun-18 01:33N 47°18' W 002°05'0 0.0
2015-Jun-18 00:33N 47°18' W 002°05'0 0.0
2015-Jun-17 23:33N 47°18' W 002°05'0 0.0
2015-Jun-17 22:31N 47°18' W 002°05'0 0.0
2015-Jun-17 21:33N 47°18' W 002°05'0 0.0
2015-Jun-17 20:33N 47°18' W 002°05'0 0.0
2015-Jun-17 19:32N 47°18' W 002°05'0 0.0
2015-Jun-17 16:07N 47°18' W 002°05'0 0.0
2015-Jun-17 15:33N 47°18' W 002°05'0 0.0
2015-Jun-17 14:31N 47°18' W 002°05'0 0.0
2015-Jun-17 13:33N 47°18' W 002°05'0 0.0
2015-Jun-17 12:30N 47°18' W 002°05'0 0.0
2015-Jun-17 10:26N 47°18' W 002°05'0 0.0
2015-Jun-17 09:32N 47°18' W 002°05'0 0.0
2015-Jun-17 08:33N 47°18' W 002°05'0 0.0
2015-Jun-17 07:33N 47°18' W 002°05'0 0.0
2015-Jun-17 06:33N 47°18' W 002°05'0 0.0
2015-Jun-17 05:33N 47°18' W 002°05'0 0.0
2015-Jun-17 04:33N 47°18' W 002°05'0 0.0
2015-Jun-17 03:33N 47°18' W 002°05'0 0.0
2015-Jun-17 02:33N 47°18' W 002°05'0 0.0
2015-Jun-17 01:33N 47°18' W 002°05'0 0.0
2015-Jun-17 00:33N 47°18' W 002°05'0 0.0
2015-Jun-16 23:33N 47°18' W 002°05'0 0.0
2015-Jun-16 22:33N 47°18' W 002°05'0 0.0
2015-Jun-16 21:19N 47°18' W 002°05'0 0.0
2015-Jun-16 20:30N 47°18' W 002°05'22 4.5
2015-Jun-16 15:33N 47°14' W 002°37'1110.8
2015-Jun-16 14:33N 47°17' W 002°52'1110.7
2015-Jun-16 13:33N 47°21' W 003°07'1 0.2
2015-Jun-16 05:05N 47°21' W 003°09'1 1.0
2015-Jun-16 04:34N 47°21' W 003°09'2 2.3
2015-Jun-16 03:33N 47°21' W 003°05'6 5.6
2015-Jun-16 02:33N 47°19' W 002°58'6 6.5
2015-Jun-16 01:33N 47°16' W 002°49'7 6.8
2015-Jun-16 00:32N 47°15' W 002°39'7 7.5
2015-Jun-15 23:32N 47°13' W 002°28'8 8.0
2015-Jun-15 22:32N 47°13' W 002°16'9 9.3
2015-Jun-15 21:33N 47°18' W 002°05'0 0.0
2015-Jun-15 20:32N 47°18' W 002°05'0 0.0
2015-Jun-15 19:30N 47°18' W 002°05'0 0.0
2015-Jun-15 15:30N 47°18' W 002°05'0 0.0
2015-Jun-15 09:17N 47°18' W 002°05'0 0.0
2015-Jun-15 08:32N 47°18' W 002°05'0 0.0
2015-Jun-15 06:33N 47°18' W 002°05'0 0.0
2015-Jun-15 05:33N 47°18' W 002°05'  
Track history (hours):
 
Tides and Currents Weather Stations Pressure Air Temp Water Temp Dewpoint Dewpoint Depression Visibility Wind Speed Wind Dir Waves Ship Positions

Anatife

Last reported at 2015-Jun-21 08:19 UTC. Time now 2015-Jul-05 17:32 UTC.
Position N 47°18' W 002°05'.
Warning: this ship's position is 14 days out of date.

Length 41 m; draft 2 m.

Type: Tanker. MMSI: 227681520.

Date/timePositionNaut miles runAvg speedWind from/ knotsBaromVisibWave heightAir tempDewpointWater temp
2015-Jun-21 08:19N 47°18' W 002°05'0 0.0
2015-Jun-21 07:26N 47°18' W 002°05'0 0.0
2015-Jun-21 06:32N 47°18' W 002°05'0 0.0
2015-Jun-21 05:33N 47°18' W 002°05'0 0.0
2015-Jun-21 04:33N 47°18' W 002°05'0 0.0
2015-Jun-21 03:33N 47°18' W 002°05'0 0.0
2015-Jun-21 02:33N 47°18' W 002°05'0 0.0
2015-Jun-21 01:32N 47°18' W 002°05'0 0.0
2015-Jun-21 00:32N 47°18' W 002°05'0 0.0
2015-Jun-20 23:33N 47°18' W 002°05'0 0.0
2015-Jun-20 22:30N 47°18' W 002°05'0 0.0
2015-Jun-20 21:28N 47°18' W 002°05'0 0.0
2015-Jun-20 20:33N 47°18' W 002°05'0 0.0
2015-Jun-20 10:27N 47°18' W 002°05'0 0.0
2015-Jun-20 09:33N 47°18' W 002°05'0 0.0
2015-Jun-20 08:33N 47°18' W 002°05'0 0.0
2015-Jun-20 07:33N 47°18' W 002°05'0 0.0
2015-Jun-20 06:33N 47°18' W 002°05'0 0.0
2015-Jun-20 05:33N 47°18' W 002°05'0 0.0
2015-Jun-20 04:33N 47°18' W 002°05'0 0.0
2015-Jun-20 03:33N 47°18' W 002°05'0 0.0
2015-Jun-20 02:33N 47°18' W 002°05'0 0.0
2015-Jun-20 01:33N 47°18' W 002°05'0 0.0
2015-Jun-20 00:33N 47°18' W 002°05'0 0.0
2015-Jun-19 23:33N 47°18' W 002°05'0 0.0
2015-Jun-19 22:33N 47°18' W 002°05'0 0.0
2015-Jun-19 21:33N 47°18' W 002°05'0 0.0
2015-Jun-19 20:33N 47°18' W 002°05'0 0.0
2015-Jun-19 19:33N 47°18' W 002°05'0 0.0
2015-Jun-19 18:33N 47°18' W 002°05'0 0.0
2015-Jun-19 13:26N 47°18' W 002°05'10 8.9
2015-Jun-19 12:20N 47°13' W 002°17'1010.2
2015-Jun-19 11:23N 47°05' W 002°25'11 9.9
2015-Jun-19 10:17N 46°54' W 002°28'810.2
2015-Jun-19 09:29N 46°47' W 002°23'3 3.2
2015-Jun-19 08:26N 46°44' W 002°21'0 0.0
2015-Jun-19 07:22N 46°44' W 002°21'0 0.0
2015-Jun-19 06:27N 46°44' W 002°21'0 0.0
2015-Jun-19 05:33N 46°44' W 002°21'0 0.0
2015-Jun-19 04:27N 46°44' W 002°21'0 0.0
2015-Jun-19 03:19N 46°44' W 002°21'0 0.0
2015-Jun-19 02:13N 46°44' W 002°21'0 0.0
2015-Jun-18 22:31N 46°44' W 002°21'0 0.0
2015-Jun-18 21:32N 46°44' W 002°21'36 2.8
2015-Jun-18 08:30N 47°18' W 002°05'0 0.0
2015-Jun-18 07:32N 47°18' W 002°05'0 0.0
2015-Jun-18 06:33N 47°18' W 002°05'0 0.0
2015-Jun-18 05:33N 47°18' W 002°05'0 0.0
2015-Jun-18 04:33N 47°18' W 002°05'0 0.0
2015-Jun-18 03:33N 47°18' W 002°05'0 0.0
2015-Jun-18 02:33N 47°18' W 002°05'0 0.0
2015-Jun-18 01:33N 47°18' W 002°05'0 0.0
2015-Jun-18 00:33N 47°18' W 002°05'0 0.0
2015-Jun-17 23:33N 47°18' W 002°05'0 0.0
2015-Jun-17 22:31N 47°18' W 002°05'0 0.0
2015-Jun-17 21:33N 47°18' W 002°05'0 0.0
2015-Jun-17 20:33N 47°18' W 002°05'0 0.0
2015-Jun-17 19:32N 47°18' W 002°05'0 0.0
2015-Jun-17 16:07N 47°18' W 002°05'0 0.0
2015-Jun-17 15:33N 47°18' W 002°05'0 0.0
2015-Jun-17 14:31N 47°18' W 002°05'0 0.0
2015-Jun-17 13:33N 47°18' W 002°05'0 0.0
2015-Jun-17 12:30N 47°18' W 002°05'0 0.0
2015-Jun-17 10:26N 47°18' W 002°05'0 0.0
2015-Jun-17 09:32N 47°18' W 002°05'0 0.0
2015-Jun-17 08:33N 47°18' W 002°05'0 0.0
2015-Jun-17 07:33N 47°18' W 002°05'0 0.0
2015-Jun-17 06:33N 47°18' W 002°05'0 0.0
2015-Jun-17 05:33N 47°18' W 002°05'0 0.0
2015-Jun-17 04:33N 47°18' W 002°05'0 0.0
2015-Jun-17 03:33N 47°18' W 002°05'0 0.0
2015-Jun-17 02:33N 47°18' W 002°05'0 0.0
2015-Jun-17 01:33N 47°18' W 002°05'0 0.0
2015-Jun-17 00:33N 47°18' W 002°05'0 0.0
2015-Jun-16 23:33N 47°18' W 002°05'0 0.0
2015-Jun-16 22:33N 47°18' W 002°05'0 0.0
2015-Jun-16 21:19N 47°18' W 002°05'0 0.0
2015-Jun-16 20:30N 47°18' W 002°05'22 4.5
2015-Jun-16 15:33N 47°14' W 002°37'1110.8
2015-Jun-16 14:33N 47°17' W 002°52'1110.7
2015-Jun-16 13:33N 47°21' W 003°07'1 0.2
2015-Jun-16 05:05N 47°21' W 003°09'1 1.0
2015-Jun-16 04:34N 47°21' W 003°09'2 2.3
2015-Jun-16 03:33N 47°21' W 003°05'6 5.6
2015-Jun-16 02:33N 47°19' W 002°58'6 6.5
2015-Jun-16 01:33N 47°16' W 002°49'7 6.8
2015-Jun-16 00:32N 47°15' W 002°39'7 7.5
2015-Jun-15 23:32N 47°13' W 002°28'8 8.0
2015-Jun-15 22:32N 47°13' W 002°16'9 9.3
2015-Jun-15 21:33N 47°18' W 002°05'0 0.0
2015-Jun-15 20:32N 47°18' W 002°05'0 0.0
2015-Jun-15 19:30N 47°18' W 002°05'0 0.0
2015-Jun-15 15:30N 47°18' W 002°05'0 0.0
2015-Jun-15 09:17N 47°18' W 002°05'0 0.0
2015-Jun-15 08:32N 47°18' W 002°05'0 0.0
2015-Jun-15 06:33N 47°18' W 002°05'0 0.0
2015-Jun-15 05:33N 47°18' W 002°05'  

Dump ship's entire track history